Time;durP1;ratioP1;P1;durP2;ratioP2;P2;SDS_P1;SDS_P2;PMS_P1;PMS_P2;Temp;Humidity;BMP_temperature;BMP_pressure;BME280_temperature;BME280_humidity;BME280_pressure;Samples;Min_cycle;Max_cycle;Signal;HPM_P1;HPM_P2
2021/05/02 00:02:08;;;;;;;0.65;0.52;;;15.20;71.20;;;;;;4158593;28;20041;-43
2021/05/02 00:04:28;;;;;;;;;;;15.20;71.20;;;;;;4158597;28;20583;-44
2021/05/02 00:06:49;;;;;;;0.60;0.60;;;15.20;71.40;;;;;;4158466;28;19924;-43
2021/05/02 00:09:11;;;;;;;0.00;0.00;;;15.20;71.20;;;;;;4158214;28;20053;-45
2021/05/02 00:11:33;;;;;;;0.00;0.00;;;15.10;71.30;;;;;;4158297;28;20053;-44
2021/05/02 00:13:54;;;;;;;7.38;0.80;;;15.10;71.40;;;;;;4157893;28;20050;-43
2021/05/02 00:16:16;;;;;;;0.00;0.00;;;15.10;71.40;;;;;;4156921;28;20546;-43
2021/05/02 00:18:37;;;;;;;0.10;0.10;;;15.10;71.50;;;;;;4158089;28;20150;-43
2021/05/02 00:20:59;;;;;;;0.00;0.00;;;15.10;71.60;;;;;;4157586;28;20415;-43
2021/05/02 00:23:21;;;;;;;0.10;0.10;;;15.10;71.50;;;;;;4158225;28;20491;-45
2021/05/02 00:25:42;;;;;;;0.10;0.10;;;15.10;71.60;;;;;;4157713;28;20053;-43
2021/05/02 00:28:08;;;;;;;0.00;0.00;;;15.10;71.60;;;;;;4156407;28;20060;-42
2021/05/02 00:30:30;;;;;;;0.00;0.00;;;15.10;71.60;;;;;;4156434;28;20081;-44
2021/05/02 00:32:52;;;;;;;0.00;0.00;;;15.10;71.70;;;;;;4158125;28;20068;-43
2021/05/02 00:35:14;;;;;;;0.00;0.00;;;15.00;71.60;;;;;;4157913;28;20053;-44
2021/05/02 00:37:38;;;;;;;0.00;0.00;;;15.00;71.60;;;;;;4158077;28;20042;-44
2021/05/02 00:39:59;;;;;;;0.25;0.25;;;15.00;71.70;;;;;;4157983;28;20582;-43
2021/05/02 00:42:24;;;;;;;0.00;0.00;;;15.00;71.80;;;;;;4158142;28;20060;-45
2021/05/02 00:44:48;;;;;;;0.15;0.15;;;15.00;71.80;;;;;;4141548;28;20058;-43
2021/05/02 00:47:12;;;;;;;0.00;0.00;;;15.00;71.80;;;;;;4141692;28;20117;-44
2021/05/02 00:49:39;;;;;;;0.38;0.38;;;15.00;72.70;;;;;;4141462;28;20144;-43
2021/05/02 00:52:07;;;;;;;0.10;0.10;;;15.00;71.80;;;;;;4141981;28;20092;-43
2021/05/02 00:54:34;;;;;;;0.45;0.45;;;15.00;71.90;;;;;;4141218;28;20061;-43
2021/05/02 00:57:01;;;;;;;0.52;0.32;;;15.00;71.80;;;;;;4149010;28;20041;-43
2021/05/02 00:59:32;;;;;;;0.00;0.00;;;15.00;71.80;;;;;;4157377;28;20491;-43
2021/05/02 01:01:56;;;;;;;0.25;0.25;;;15.00;71.90;;;;;;4157759;28;20136;-42
2021/05/02 01:04:23;;;;;;;0.03;0.03;;;15.00;72.00;;;;;;4158086;28;20057;-43
2021/05/02 01:06:45;;;;;;;0.10;0.10;;;15.00;71.90;;;;;;4157643;28;20046;-43
2021/05/02 01:09:06;;;;;;;0.25;0.25;;;14.90;71.90;;;;;;4157978;28;20047;-43
2021/05/02 01:11:28;;;;;;;0.38;0.38;;;15.00;72.00;;;;;;4157500;28;20091;-44
2021/05/02 01:13:55;;;;;;;0.00;0.00;;;14.90;71.90;;;;;;4157769;28;20037;-43
2021/05/02 01:16:20;;;;;;;0.10;0.10;;;14.90;72.00;;;;;;4156948;28;20065;-43
2021/05/02 01:18:42;;;;;;;0.25;0.25;;;14.90;72.00;;;;;;4157104;28;20065;-45
2021/05/02 01:21:03;;;;;;;0.00;0.00;;;14.90;72.00;;;;;;4157913;28;20053;-44
2021/05/02 01:23:27;;;;;;;0.00;0.00;;;14.90;72.00;;;;;;4156329;28;20049;-45
2021/05/02 01:25:53;;;;;;;0.30;0.30;;;14.90;71.90;;;;;;4157145;28;20042;-44
2021/05/02 01:28:13;;;;;;;0.00;0.00;;;14.90;71.80;;;;;;4157520;28;20527;-43
2021/05/02 01:30:34;;;;;;;0.00;0.00;;;14.90;71.90;;;;;;4157645;28;20136;-43
2021/05/02 01:32:55;;;;;;;0.10;0.10;;;14.80;71.90;;;;;;4159061;28;20045;-43
2021/05/02 01:35:17;;;;;;;0.00;0.00;;;14.80;72.80;;;;;;4160412;28;20049;-43
2021/05/02 01:37:38;;;;;;;0.00;0.00;;;14.80;72.10;;;;;;4143830;28;20069;-43
2021/05/02 01:40:01;;;;;;;0.00;0.00;;;14.80;72.10;;;;;;4144137;28;20119;-47
2021/05/02 01:42:22;;;;;;;0.20;0.20;;;14.80;72.10;;;;;;4149758;28;20072;-43
2021/05/02 01:44:43;;;;;;;0.15;0.15;;;14.80;72.10;;;;;;4160623;28;20152;-45
2021/05/02 01:47:09;;;;;;;0.00;0.00;;;14.80;72.10;;;;;;4160439;28;20588;-44
2021/05/02 01:49:34;;;;;;;0.28;0.28;;;14.80;72.20;;;;;;4160152;28;20477;-43
2021/05/02 01:51:56;;;;;;;0.00;0.00;;;14.80;72.20;;;;;;4160336;28;20112;-43
2021/05/02 01:54:17;;;;;;;0.43;0.38;;;14.80;72.20;;;;;;4159692;28;20048;-43
2021/05/02 01:56:39;;;;;;;;;;;14.80;72.30;;;;;;4160515;28;20057;-43
2021/05/02 01:59:03;;;;;;;0.28;0.28;;;14.80;72.40;;;;;;4159996;28;20025;-43
2021/05/02 02:01:26;;;;;;;0.10;0.10;;;14.80;72.30;;;;;;4160511;28;20492;-44
2021/05/02 02:03:48;;;;;;;0.00;0.00;;;14.70;72.20;;;;;;4160359;28;20053;-43
2021/05/02 02:06:10;;;;;;;0.55;0.52;;;14.70;72.20;;;;;;4160178;28;20057;-43
2021/05/02 02:08:31;;;;;;;0.57;0.57;;;14.70;72.20;;;;;;4160130;28;20057;-43
2021/05/02 02:10:52;;;;;;;2.25;1.27;;;14.70;72.20;;;;;;4159844;28;20503;-44
2021/05/02 02:13:15;;;;;;;;;;;14.70;72.30;;;;;;4160010;28;20423;-43
2021/05/02 02:15:36;;;;;;;0.00;0.00;;;14.70;72.40;;;;;;4159554;28;19927;-43
2021/05/02 02:17:58;;;;;;;0.00;0.00;;;14.70;72.40;;;;;;4159599;28;20831;-43
2021/05/02 02:20:19;;;;;;;0.00;0.00;;;14.70;72.30;;;;;;4158449;28;20062;-44
2021/05/02 02:22:41;;;;;;;0.13;0.13;;;14.60;72.20;;;;;;4159893;28;20131;-43
2021/05/02 02:25:03;;;;;;;0.00;0.00;;;14.70;72.40;;;;;;4160447;28;20048;-46
2021/05/02 02:27:26;;;;;;;;;;;14.60;72.40;;;;;;4160211;28;20045;-43
2021/05/02 02:29:49;;;;;;;0.00;0.00;;;14.60;72.50;;;;;;4160018;28;19933;-45
2021/05/02 02:32:12;;;;;;;0.10;0.10;;;14.60;72.40;;;;;;4159671;28;20056;-43
2021/05/02 02:34:36;;;;;;;0.22;0.22;;;14.60;72.40;;;;;;4159302;28;20088;-47
2021/05/02 02:36:57;;;;;;;0.30;0.30;;;14.60;72.40;;;;;;4159835;28;20049;-46
2021/05/02 02:39:18;;;;;;;;;;;14.60;72.40;;;;;;4160484;28;20056;-45
2021/05/02 02:41:42;;;;;;;0.10;0.10;;;14.60;72.50;;;;;;4157998;28;19932;-42
2021/05/02 02:44:07;;;;;;;0.00;0.00;;;14.60;72.50;;;;;;4159095;28;20049;-43
2021/05/02 02:46:30;;;;;;;0.00;0.00;;;14.60;72.40;;;;;;4159829;28;20103;-43
2021/05/02 02:48:55;;;;;;;0.00;0.00;;;14.60;72.30;;;;;;4159769;28;20064;-44
2021/05/02 02:51:18;;;;;;;0.20;0.20;;;14.60;72.50;;;;;;4158955;28;20045;-43
2021/05/02 02:53:42;;;;;;;0.00;0.00;;;14.60;72.40;;;;;;4158112;28;20527;-44
2021/05/02 02:56:06;;;;;;;0.00;0.00;;;14.60;72.30;;;;;;4158892;28;20140;-43
2021/05/02 02:58:33;;;;;;;0.00;0.00;;;14.60;72.40;;;;;;4159038;28;20128;-44
2021/05/02 03:00:54;;;;;;;0.00;0.00;;;14.60;72.80;;;;;;4158815;28;20115;-46
2021/05/02 03:03:19;;;;;;;0.00;0.00;;;14.50;72.40;;;;;;4159325;28;20080;-44
2021/05/02 03:05:41;;;;;;;0.10;0.10;;;14.50;72.40;;;;;;4159320;28;20069;-43
2021/05/02 03:08:04;;;;;;;0.63;0.63;;;14.50;72.40;;;;;;4158816;28;20042;-43
2021/05/02 03:10:26;;;;;;;0.10;0.10;;;14.50;72.40;;;;;;4159227;28;20545;-43
2021/05/02 03:12:49;;;;;;;0.00;0.00;;;14.50;72.40;;;;;;4157318;28;20482;-43
2021/05/02 03:15:11;;;;;;;0.00;0.00;;;14.50;72.50;;;;;;4159172;28;20045;-44
2021/05/02 03:17:33;;;;;;;0.00;0.00;;;14.50;72.50;;;;;;4158733;28;20048;-43
2021/05/02 03:20:02;;;;;;;;;;;14.50;72.50;;;;;;4159369;28;20559;-43
2021/05/02 03:22:31;;;;;;;0.00;0.00;;;14.50;72.60;;;;;;4158856;28;20015;-43
2021/05/02 03:24:56;;;;;;;0.00;0.00;;;14.50;72.50;;;;;;4158320;28;20129;-47
2021/05/02 03:27:22;;;;;;;1.13;0.75;;;14.50;72.60;;;;;;4158667;28;20065;-49
2021/05/02 03:29:47;;;;;;;0.20;0.20;;;14.40;72.50;;;;;;4158892;28;20052;-44
2021/05/02 03:32:11;;;;;;;0.00;0.00;;;14.50;72.70;;;;;;4158240;28;20061;-43
2021/05/02 03:34:33;;;;;;;0.00;0.00;;;14.40;72.60;;;;;;4159034;28;20496;-44
2021/05/02 03:37:00;;;;;;;0.00;0.00;;;14.40;72.60;;;;;;4158679;28;20568;-44
2021/05/02 03:39:21;;;;;;;0.20;0.20;;;14.50;72.60;;;;;;4142129;28;20141;-46
2021/05/02 03:41:42;;;;;;;0.00;0.00;;;14.50;72.60;;;;;;4145097;28;20079;-44
2021/05/02 03:44:03;;;;;;;0.10;0.10;;;14.40;72.50;;;;;;4158465;28;20053;-44
2021/05/02 03:46:25;;;;;;;0.00;0.00;;;14.40;72.60;;;;;;4158707;28;20056;-44
2021/05/02 03:48:46;;;;;;;;;;;14.40;72.50;;;;;;4159164;28;20056;-43
2021/05/02 03:51:06;;;;;;;0.00;0.00;;;14.40;72.60;;;;;;4158612;28;20010;-45
2021/05/02 03:53:28;;;;;;;0.00;0.00;;;14.40;72.60;;;;;;4158348;28;20491;-43
2021/05/02 03:55:49;;;;;;;2.30;2.10;;;14.40;72.60;;;;;;4157540;28;20046;-44
2021/05/02 03:58:11;;;;;;;0.00;0.00;;;14.40;72.60;;;;;;4158070;28;20053;-45
2021/05/02 04:00:32;;;;;;;0.00;0.00;;;14.40;72.60;;;;;;4158218;28;20099;-44
2021/05/02 04:02:53;;;;;;;0.30;0.30;;;14.40;72.60;;;;;;4158398;28;20046;-44
2021/05/02 04:05:14;;;;;;;0.00;0.00;;;14.40;72.60;;;;;;4158480;28;20046;-46
2021/05/02 04:07:34;;;;;;;0.00;0.00;;;14.40;72.60;;;;;;4158407;28;20103;-46
2021/05/02 04:09:56;;;;;;;0.00;0.00;;;14.40;72.60;;;;;;4158162;28;20138;-44
2021/05/02 04:12:17;;;;;;;0.10;0.10;;;14.40;72.60;;;;;;4157693;28;20114;-46
2021/05/02 04:14:38;;;;;;;0.30;0.30;;;14.40;72.50;;;;;;4158086;28;20045;-43
2021/05/02 04:17:00;;;;;;;;;;;14.40;72.60;;;;;;4158551;28;20049;-43
2021/05/02 04:19:20;;;;;;;0.00;0.00;;;14.40;72.60;;;;;;4158061;28;20016;-43
2021/05/02 04:21:41;;;;;;;0.00;0.00;;;14.40;72.60;;;;;;4158369;28;20056;-44
2021/05/02 04:24:03;;;;;;;0.00;0.00;;;14.30;72.70;;;;;;4158176;28;20091;-42
2021/05/02 04:26:25;;;;;;;0.00;0.00;;;14.30;72.80;;;;;;4157768;28;20053;-43
2021/05/02 04:28:46;;;;;;;0.20;0.20;;;14.40;73.10;;;;;;4158064;28;20075;-43
2021/05/02 04:31:07;;;;;;;0.15;0.15;;;14.40;72.80;;;;;;4158261;28;20041;-43
2021/05/02 04:33:28;;;;;;;0.00;0.00;;;14.40;72.70;;;;;;4157672;28;20060;-44
2021/05/02 04:35:49;;;;;;;;;;;14.40;72.70;;;;;;4158798;28;20064;-43
2021/05/02 04:38:10;;;;;;;0.00;0.00;;;14.30;72.70;;;;;;4156781;28;19988;-43
2021/05/02 04:40:31;;;;;;;0.00;0.00;;;14.30;72.70;;;;;;4157936;28;20538;-43
2021/05/02 04:42:53;;;;;;;0.00;0.00;;;14.30;72.60;;;;;;4156346;28;20127;-43
2021/05/02 04:45:14;;;;;;;0.00;0.00;;;14.30;72.70;;;;;;4158252;28;20045;-43
2021/05/02 04:47:35;;;;;;;;;;;14.30;72.70;;;;;;4158451;28;20115;-43
2021/05/02 04:49:56;;;;;;;0.00;0.00;;;14.30;72.80;;;;;;4157972;28;19947;-44
2021/05/02 04:52:17;;;;;;;0.00;0.00;;;14.30;72.80;;;;;;4157609;28;20088;-44
2021/05/02 04:54:38;;;;;;;0.00;0.00;;;14.30;73.70;;;;;;4157679;28;20085;-43
2021/05/02 04:56:59;;;;;;;0.00;0.00;;;14.30;72.80;;;;;;4157837;28;20115;-45
2021/05/02 04:59:21;;;;;;;0.00;0.00;;;14.30;72.80;;;;;;4157863;28;20720;-45
2021/05/02 05:01:43;;;;;;;;;;;14.30;72.80;;;;;;4158368;28;20045;-45
2021/05/02 05:04:06;;;;;;;0.10;0.10;;;14.30;72.90;;;;;;4157444;28;19971;-44
2021/05/02 05:06:27;;;;;;;0.00;0.00;;;14.30;72.90;;;;;;4141622;28;20073;-44
2021/05/02 05:08:48;;;;;;;0.00;0.00;;;14.30;72.80;;;;;;4146212;28;20050;-44
2021/05/02 05:11:09;;;;;;;0.15;0.15;;;14.20;72.80;;;;;;4160973;28;20103;-44
2021/05/02 05:13:30;;;;;;;1.45;1.35;;;14.30;72.90;;;;;;4160982;28;20061;-46
2021/05/02 05:15:54;;;;;;;0.00;0.00;;;14.20;72.80;;;;;;4161221;28;20506;-43
2021/05/02 05:18:16;;;;;;;0.00;0.00;;;14.20;72.80;;;;;;4159287;28;20057;-43
2021/05/02 05:20:37;;;;;;;;;;;14.30;72.90;;;;;;4160758;28;20132;-43
2021/05/02 05:22:57;;;;;;;0.00;0.00;;;14.20;72.90;;;;;;4160543;28;20015;-43
2021/05/02 05:25:19;;;;;;;0.00;0.00;;;14.20;72.90;;;;;;4161011;28;20061;-43
2021/05/02 05:27:40;;;;;;;;;;;14.20;72.80;;;;;;4161191;28;20049;-43
2021/05/02 05:30:01;;;;;;;0.00;0.00;;;14.20;72.80;;;;;;4160715;28;19982;-44
2021/05/02 05:32:23;;;;;;;0.10;0.10;;;14.20;72.90;;;;;;4160614;28;20470;-43
2021/05/02 05:34:44;;;;;;;0.00;0.00;;;14.20;72.90;;;;;;4160658;28;20073;-43
2021/05/02 05:37:05;;;;;;;0.00;0.00;;;14.20;72.80;;;;;;4160832;28;20128;-43
2021/05/02 05:39:26;;;;;;;0.00;0.00;;;14.20;72.80;;;;;;4160593;28;20053;-43
2021/05/02 05:41:47;;;;;;;0.00;0.00;;;14.20;73.20;;;;;;4159003;28;20411;-42
2021/05/02 05:44:08;;;;;;;0.00;0.00;;;14.20;73.70;;;;;;4160615;28;20052;-42
2021/05/02 05:46:29;;;;;;;0.00;0.00;;;14.30;74.30;;;;;;4160441;28;20132;-43
2021/05/02 05:48:51;;;;;;;0.00;0.00;;;14.40;73.80;;;;;;4160141;28;20049;-45
2021/05/02 05:51:12;;;;;;;;;;;14.40;73.50;;;;;;4160865;28;20462;-42
2021/05/02 05:53:33;;;;;;;0.00;0.00;;;14.40;73.30;;;;;;4160431;28;20375;-43
2021/05/02 05:55:56;;;;;;;0.20;0.20;;;14.30;72.90;;;;;;4160430;28;20056;-43
2021/05/02 05:58:18;;;;;;;0.10;0.10;;;14.30;72.90;;;;;;4159531;28;20523;-43
2021/05/02 06:00:39;;;;;;;0.00;0.00;;;14.30;72.80;;;;;;4159999;28;20045;-42
2021/05/02 06:03:00;;;;;;;0.10;0.10;;;14.30;72.80;;;;;;4158640;28;20071;-43
2021/05/02 06:05:22;;;;;;;14.57;1.38;;;14.30;72.80;;;;;;4160204;28;20057;-43
2021/05/02 06:07:44;;;;;;;0.00;0.00;;;14.30;73.60;;;;;;4160307;28;20053;-43
2021/05/02 06:10:06;;;;;;;0.00;0.00;;;14.30;72.70;;;;;;4160118;28;20503;-42
2021/05/02 06:12:27;;;;;;;0.00;0.00;;;14.30;72.70;;;;;;4160312;28;20073;-43
2021/05/02 06:14:48;;;;;;;0.00;0.00;;;14.30;72.70;;;;;;4159842;28;20521;-43
2021/05/02 06:17:09;;;;;;;;;;;14.30;72.60;;;;;;4160323;28;20246;-43
2021/05/02 06:19:31;;;;;;;;;;;14.30;72.60;;;;;;4159254;28;19920;-44
2021/05/02 06:21:53;;;;;;;0.10;0.10;;;14.30;72.50;;;;;;4159919;28;19951;-47
2021/05/02 06:24:14;;;;;;;0.00;0.00;;;14.30;72.50;;;;;;4158504;28;20478;-43
2021/05/02 06:26:34;;;;;;;0.05;0.05;;;14.20;72.40;;;;;;4159980;28;20504;-44
2021/05/02 06:28:55;;;;;;;0.00;0.00;;;14.20;72.50;;;;;;4159862;28;20441;-44
2021/05/02 06:31:17;;;;;;;0.00;0.00;;;14.20;72.90;;;;;;4159811;28;20464;-42
2021/05/02 06:33:38;;;;;;;;;;;14.20;72.70;;;;;;4160220;28;20056;-43
2021/05/02 06:35:59;;;;;;;0.00;0.00;;;14.20;72.80;;;;;;4159351;28;20425;-46
2021/05/02 06:38:21;;;;;;;0.00;0.00;;;14.20;72.70;;;;;;4159599;28;20049;-43
2021/05/02 06:40:42;;;;;;;11.32;5.47;;;14.20;72.50;;;;;;4159469;28;20049;-43
2021/05/02 06:43:03;;;;;;;0.00;0.00;;;14.20;72.50;;;;;;4159509;28;20049;-44
2021/05/02 06:45:24;;;;;;;11.27;1.30;;;14.20;72.80;;;;;;4158167;28;20132;-45
2021/05/02 06:47:45;;;;;;;0.20;0.20;;;14.20;81.10;;;;;;4159764;28;20053;-43
2021/05/02 06:50:06;;;;;;;6.15;1.17;;;14.30;82.40;;;;;;4158105;28;20081;-43
2021/05/02 06:52:27;;;;;;;;;;;14.30;81.50;;;;;;4159914;28;20072;-43
2021/05/02 06:54:48;;;;;;;0.00;0.00;;;14.30;81.70;;;;;;4159726;28;19928;-44
2021/05/02 06:57:09;;;;;;;2.30;1.05;;;14.30;79.20;;;;;;4159611;28;20056;-43
2021/05/02 06:59:32;;;;;;;0.77;0.77;;;14.30;77.80;;;;;;4142584;28;20053;-46
2021/05/02 07:01:53;;;;;;;0.00;0.00;;;14.30;77.20;;;;;;4142830;28;20160;-50
2021/05/02 07:04:14;;;;;;;0.00;0.00;;;14.30;76.50;;;;;;4142929;28;20054;-43
2021/05/02 07:06:35;;;;;;;2.05;1.88;;;14.30;75.70;;;;;;4141508;28;20049;-43
2021/05/02 07:08:57;;;;;;;0.20;0.20;;;14.30;75.20;;;;;;4142842;28;20481;-43
2021/05/02 07:11:20;;;;;;;0.00;0.00;;;14.30;74.50;;;;;;4142941;28;20056;-44
2021/05/02 07:13:41;;;;;;;0.10;0.10;;;14.30;74.00;;;;;;4145928;28;20511;-43
2021/05/02 07:16:02;;;;;;;0.00;0.00;;;14.20;73.60;;;;;;4153845;28;20132;-44
2021/05/02 07:18:23;;;;;;;0.10;0.10;;;14.30;73.40;;;;;;4158807;28;20052;-43
2021/05/02 07:20:45;;;;;;;0.00;0.00;;;14.30;73.30;;;;;;4158842;28;20049;-42
2021/05/02 07:23:06;;;;;;;0.03;0.03;;;14.30;73.40;;;;;;4151112;28;20068;-45
2021/05/02 07:25:27;;;;;;;0.10;0.10;;;14.40;73.90;;;;;;4161625;28;20071;-44
2021/05/02 07:27:49;;;;;;;0.00;0.00;;;14.40;73.40;;;;;;4159696;28;20063;-43
2021/05/02 07:30:11;;;;;;;0.00;0.00;;;14.40;72.80;;;;;;4162492;28;20093;-44
2021/05/02 07:32:32;;;;;;;2.03;1.83;;;14.80;71.00;;;;;;4160965;28;20392;-44
2021/05/02 07:34:54;;;;;;;0.00;0.00;;;15.70;67.10;;;;;;4153608;28;20148;-44
2021/05/02 07:37:19;;;;;;;0.00;0.00;;;16.80;62.80;;;;;;4142793;28;20056;-42
2021/05/02 07:39:42;;;;;;;0.00;0.00;;;17.80;59.00;;;;;;4158213;28;20053;-45
2021/05/02 07:42:06;;;;;;;0.00;0.00;;;18.80;56.10;;;;;;4149760;28;20132;-42
2021/05/02 07:44:31;;;;;;;0.30;0.30;;;19.70;53.40;;;;;;4152953;28;20061;-43
2021/05/02 07:46:54;;;;;;;1.00;1.00;;;20.40;51.40;;;;;;4155311;28;20491;-45
2021/05/02 07:49:17;;;;;;;0.10;0.10;;;20.90;50.20;;;;;;4152926;28;20471;-44
2021/05/02 07:51:40;;;;;;;0.22;0.08;;;21.10;49.40;;;;;;4154938;28;20045;-43
2021/05/02 07:54:02;;;;;;;0.00;0.00;;;21.20;49.30;;;;;;4154104;28;20054;-44
2021/05/02 07:56:24;;;;;;;0.00;0.00;;;21.00;49.40;;;;;;4163963;28;20076;-43
2021/05/02 07:58:47;;;;;;;0.08;0.08;;;20.70;50.00;;;;;;4148277;28;20411;-43
2021/05/02 08:01:12;;;;;;;0.05;0.05;;;20.30;50.70;;;;;;4148341;28;20131;-44
2021/05/02 08:03:53;;;;;;;0.03;0.03;;;20.00;51.60;;;;;;4151454;28;20451;-45
2021/05/02 08:06:19;;;;;;;0.70;0.70;;;19.70;52.20;;;;;;4142645;28;20224;-44
2021/05/02 08:12:18;;;;;;;0.00;0.00;;;19.10;53.60;;;;;;4105376;28;20049;-44
2021/05/02 08:15:22;;;;;;;0.00;0.00;;;18.70;54.50;;;;;;4136578;28;20041;-44
2021/05/02 08:18:09;;;;;;;;;;;;;;;;;;;;;
2021/05/02 08:20:44;;;;;;;0.38;0.38;;;18.20;55.80;;;;;;4161869;28;20156;-46
2021/05/02 08:23:05;;;;;;;0.00;0.00;;;17.90;56.50;;;;;;4165155;28;20087;-43
2021/05/02 08:25:26;;;;;;;0.63;0.63;;;17.70;56.80;;;;;;4162920;28;20052;-43
2021/05/02 08:27:49;;;;;;;0.63;0.57;;;17.60;57.90;;;;;;4162522;28;20052;-45
2021/05/02 08:30:12;;;;;;;0.00;0.00;;;17.50;57.30;;;;;;4160171;28;20142;-44
2021/05/02 08:32:34;;;;;;;0.00;0.00;;;17.70;56.80;;;;;;4163737;28;20431;-45
2021/05/02 08:34:55;;;;;;;0.88;0.85;;;18.00;56.10;;;;;;4163570;28;20135;-43
2021/05/02 08:37:17;;;;;;;3.10;1.38;;;18.10;55.40;;;;;;4162434;28;20049;-43
2021/05/02 08:39:38;;;;;;;;;;;18.10;55.10;;;;;;4160172;28;20495;-47
2021/05/02 08:41:59;;;;;;;0.10;0.10;;;18.10;55.20;;;;;;4164981;28;20306;-47
2021/05/02 08:44:24;;;;;;;0.10;0.10;;;18.00;55.40;;;;;;4164108;28;20148;-47
2021/05/02 08:46:45;;;;;;;0.00;0.00;;;17.90;55.60;;;;;;4165613;28;20068;-44
2021/05/02 08:49:06;;;;;;;7.03;1.98;;;17.80;55.90;;;;;;4168280;28;20040;-43
2021/05/02 08:51:28;;;;;;;0.00;0.00;;;17.80;55.70;;;;;;4165885;28;20049;-44
2021/05/02 08:53:49;;;;;;;0.00;0.00;;;17.90;55.50;;;;;;4166259;28;20044;-44
2021/05/02 08:56:10;;;;;;;1.10;1.10;;;17.80;55.60;;;;;;4160565;28;20045;-44
2021/05/02 08:58:32;;;;;;;0.00;0.00;;;17.70;55.60;;;;;;4168087;28;20055;-44
2021/05/02 09:00:57;;;;;;;0.00;0.00;;;17.60;55.90;;;;;;4165962;28;20411;-44
2021/05/02 09:03:18;;;;;;;0.00;0.00;;;17.50;56.10;;;;;;4165650;28;20056;-46
2021/05/02 09:05:44;;;;;;;0.10;0.10;;;17.40;56.50;;;;;;4160923;28;20545;-44
2021/05/02 09:08:06;;;;;;;0.00;0.00;;;17.30;56.90;;;;;;4168158;28;20056;-44
2021/05/02 09:10:34;;;;;;;0.10;0.10;;;17.30;57.10;;;;;;4166216;28;20496;-43
2021/05/02 09:13:03;;;;;;;0.00;0.00;;;17.60;56.40;;;;;;4165722;28;20071;-45
2021/05/02 09:15:25;;;;;;;0.00;0.00;;;17.80;55.50;;;;;;4165835;28;20163;-44
2021/05/02 09:17:58;;;;;;;0.00;0.00;;;17.80;55.10;;;;;;4164612;28;20565;-44
2021/05/02 09:20:42;;;;;;;0.00;0.00;;;17.70;55.40;;;;;;4160681;28;20069;-44
2021/05/02 09:23:03;;;;;;;0.00;0.00;;;17.50;55.70;;;;;;4166942;28;20128;-44
2021/05/02 09:26:18;;;;;;;;;;;;;;;;;;;;;
2021/05/02 09:28:59;;;;;;;0.00;0.00;;;17.20;56.50;;;;;;4152054;28;20090;-43
2021/05/02 09:31:44;;;;;;;0.10;0.10;;;17.10;57.00;;;;;;4132439;28;20113;-44
2021/05/02 09:34:34;;;;;;;0.00;0.00;;;17.00;57.40;;;;;;4149370;28;20463;-43
2021/05/02 09:37:02;;;;;;;0.00;0.00;;;17.00;58.00;;;;;;4158496;28;20045;-44
2021/05/02 09:40:11;;;;;;;0.25;0.15;;;17.10;57.90;;;;;;4160364;28;20467;-45
2021/05/02 09:45:43;;;;;;;0.00;0.00;;;17.40;56.80;;;;;;4154289;28;20049;-44
2021/05/02 09:48:34;;;;;;;0.00;0.00;;;17.50;56.30;;;;;;4153705;28;20103;-44
2021/05/02 09:51:16;;;;;;;1.20;0.38;;;17.50;56.40;;;;;;4158181;28;20107;-44
2021/05/02 09:54:14;;;;;;;0.00;0.00;;;17.50;56.60;;;;;;4143031;28;20053;-44
2021/05/02 09:57:02;;;;;;;0.00;0.00;;;17.60;56.60;;;;;;4104867;28;20063;-44
2021/05/02 09:59:37;;;;;;;0.00;0.00;;;17.80;56.20;;;;;;4124516;28;20047;-45
2021/05/02 10:02:22;;;;;;;0.00;0.00;;;17.90;55.80;;;;;;4111078;28;20071;-46
2021/05/02 10:04:56;;;;;;;0.45;0.45;;;18.00;55.60;;;;;;4112920;28;20259;-48
2021/05/02 10:07:24;;;;;;;5.47;0.47;;;17.90;55.70;;;;;;4148018;28;20135;-45
2021/05/02 10:09:47;;;;;;;0.00;0.00;;;17.90;55.70;;;;;;4169459;28;20088;-44
2021/05/02 10:12:10;;;;;;;0.00;0.00;;;17.80;55.90;;;;;;4166811;28;20144;-45
2021/05/02 10:14:32;;;;;;;0.00;0.00;;;17.70;56.10;;;;;;4165982;28;25986;-45
2021/05/02 10:16:59;;;;;;;0.00;0.00;;;17.60;56.20;;;;;;4140320;28;20045;-47
2021/05/02 10:19:41;;;;;;;0.00;0.00;;;17.50;56.50;;;;;;4124731;28;20056;-45
2021/05/02 10:22:09;;;;;;;0.00;0.00;;;17.30;56.90;;;;;;4150731;28;20128;-44
2021/05/02 10:24:40;;;;;;;0.40;0.40;;;17.20;57.10;;;;;;4148175;28;20078;-45
2021/05/02 10:31:09;;;;;;;2.13;1.27;;;17.00;57.80;;;;;;4157035;28;20045;-44
2021/05/02 10:33:35;;;;;;;1.95;1.33;;;17.00;57.70;;;;;;4161018;28;20072;-45
2021/05/02 10:36:03;;;;;;;0.00;0.00;;;17.10;57.30;;;;;;4161397;28;20052;-47
2021/05/02 10:38:49;;;;;;;0.38;0.38;;;17.20;57.10;;;;;;4160669;28;20060;-46
2021/05/02 10:41:25;;;;;;;0.25;0.25;;;17.30;57.00;;;;;;4161728;28;20092;-43
2021/05/02 10:43:46;;;;;;;0.05;0.05;;;17.30;56.90;;;;;;4165108;28;20151;-44
2021/05/02 10:46:12;;;;;;;0.00;0.00;;;17.30;56.90;;;;;;4166477;28;20053;-43
2021/05/02 10:48:44;;;;;;;0.68;0.68;;;17.30;57.10;;;;;;4164190;28;20052;-44
2021/05/02 10:51:29;;;;;;;0.20;0.20;;;17.30;57.20;;;;;;4165455;28;20132;-44
2021/05/02 10:54:07;;;;;;;0.80;0.80;;;17.30;57.40;;;;;;4166103;28;20135;-44
2021/05/02 10:56:45;;;;;;;0.00;0.00;;;17.20;57.50;;;;;;4164659;28;20079;-43
2021/05/02 10:59:06;;;;;;;5.03;1.27;;;17.20;57.90;;;;;;4165759;28;20408;-44
2021/05/02 11:01:28;;;;;;;0.20;0.20;;;17.20;58.30;;;;;;4163290;28;20053;-44
2021/05/02 11:03:52;;;;;;;3.35;1.42;;;17.10;58.20;;;;;;4163651;28;20045;-44
2021/05/02 11:06:14;;;;;;;2.75;2.47;;;17.00;58.10;;;;;;4162116;28;20053;-44
2021/05/02 11:08:48;;;;;;;0.10;0.10;;;16.90;58.40;;;;;;4166407;28;20128;-43
2021/05/02 11:11:35;;;;;;;2.00;0.70;;;16.80;58.50;;;;;;4163105;28;20046;-44
2021/05/02 11:14:30;;;;;;;0.52;0.52;;;16.70;58.80;;;;;;4163908;28;20405;-43
2021/05/02 11:20:33;;;;;;;0.00;0.00;;;16.50;59.50;;;;;;4148574;28;20053;-43
2021/05/02 11:22:59;;;;;;;1.00;0.57;;;16.40;60.00;;;;;;4150365;28;20055;-43
2021/05/02 11:26:01;;;;;;;0.05;0.05;;;16.30;60.40;;;;;;4145536;28;20115;-47
2021/05/02 11:28:44;;;;;;;1.35;1.35;;;16.30;60.70;;;;;;4148218;28;20096;-44
2021/05/02 11:31:20;;;;;;;6.85;1.20;;;16.30;61.30;;;;;;4148413;28;20048;-43
2021/05/02 11:34:09;;;;;;;0.05;0.05;;;16.40;61.30;;;;;;4142658;28;20523;-43
2021/05/02 11:36:42;;;;;;;0.00;0.00;;;16.80;60.40;;;;;;4142316;28;20054;-44
2021/05/02 11:43:24;;;;;;;0.10;0.10;;;17.20;59.20;;;;;;4126886;28;20049;-44
2021/05/02 11:46:41;;;;;;;0.80;0.80;;;17.20;59.30;;;;;;4134198;28;20998;-44
2021/05/02 11:49:15;;;;;;;0.75;0.75;;;17.20;59.60;;;;;;4140453;28;20087;-43
2021/05/02 11:52:16;;;;;;;0.65;0.65;;;17.10;59.50;;;;;;4134768;28;20121;-44
2021/05/02 11:55:36;;;;;;;0.70;0.70;;;17.00;59.60;;;;;;4154101;28;20130;-44
2021/05/02 11:58:16;;;;;;;0.00;0.00;;;17.00;59.90;;;;;;4120068;28;20052;-46
2021/05/02 12:00:49;;;;;;;0.00;0.00;;;17.00;59.50;;;;;;4139812;28;20041;-44
2021/05/02 12:03:21;;;;;;;2.30;0.35;;;17.00;59.50;;;;;;4118557;28;20049;-45
2021/05/02 12:06:01;;;;;;;0.55;0.55;;;17.00;59.50;;;;;;4152803;28;20053;-45
2021/05/02 12:08:35;;;;;;;0.52;0.52;;;17.00;59.20;;;;;;4118588;28;20112;-45
2021/05/02 12:11:00;;;;;;;0.40;0.22;;;16.90;59.00;;;;;;4154009;28;20095;-48
2021/05/02 12:13:28;;;;;;;5.55;0.52;;;16.90;59.30;;;;;;4162769;28;20360;-43
2021/05/02 12:16:00;;;;;;;0.50;0.50;;;16.80;59.60;;;;;;4162785;28;20060;-46
2021/05/02 12:18:21;;;;;;;0.00;0.00;;;16.70;60.00;;;;;;4158696;28;20062;-44
2021/05/02 12:20:42;;;;;;;0.20;0.20;;;16.70;61.00;;;;;;4165301;28;20057;-47
2021/05/02 12:23:04;;;;;;;0.00;0.00;;;16.60;59.90;;;;;;4165141;28;20435;-43
2021/05/02 12:25:26;;;;;;;0.00;0.00;;;16.50;60.40;;;;;;4163233;28;20049;-44
2021/05/02 12:27:58;;;;;;;0.00;0.00;;;16.50;60.60;;;;;;4158916;28;20053;-44
2021/05/02 12:30:20;;;;;;;0.00;0.00;;;16.50;59.80;;;;;;4163334;28;20106;-48
2021/05/02 12:32:42;;;;;;;0.80;0.80;;;16.80;59.80;;;;;;4164509;28;20496;-44
2021/05/02 12:35:03;;;;;;;0.10;0.10;;;17.00;59.20;;;;;;4163903;28;20051;-44
2021/05/02 12:37:26;;;;;;;0.00;0.00;;;17.10;58.20;;;;;;4161794;28;20041;-45
2021/05/02 12:39:50;;;;;;;1.85;1.17;;;17.10;58.00;;;;;;4165134;28;20048;-44
2021/05/02 12:42:11;;;;;;;0.00;0.00;;;17.20;58.10;;;;;;4160470;28;20412;-46
2021/05/02 12:44:34;;;;;;;0.13;0.08;;;17.10;58.00;;;;;;4163696;28;20124;-45
2021/05/02 12:46:57;;;;;;;0.00;0.00;;;17.10;58.40;;;;;;4161844;28;20050;-46
2021/05/02 12:49:21;;;;;;;0.00;0.00;;;17.00;58.60;;;;;;4159277;28;20437;-45
2021/05/02 12:51:45;;;;;;;0.00;0.00;;;17.00;58.60;;;;;;4159917;28;20427;-43
2021/05/02 12:54:11;;;;;;;0.40;0.40;;;16.80;58.90;;;;;;4164841;28;20460;-44
2021/05/02 12:56:34;;;;;;;1.98;1.65;;;16.80;59.30;;;;;;4163022;28;20060;-44
2021/05/02 12:58:56;;;;;;;1.17;0.88;;;16.70;59.00;;;;;;4162636;28;20432;-45
2021/05/02 13:01:20;;;;;;;0.80;0.22;;;16.70;59.60;;;;;;4157382;28;20124;-46
2021/05/02 13:03:53;;;;;;;0.08;0.08;;;16.60;59.40;;;;;;4165070;28;20160;-45